Pine Bush, New York
Current Conditions -  °F | °C
As of 4:54 AM on Monday 20 Oct 2014 (Local Time) from KMGJ Reporting Station
Clear Clear  
Wind Chill: 29°   Ceiling: Unl
Heat Index: 35°   Visibility: 10mi
Dew Point: 28°   Wind: 7mph
Humidity: 76%   Direction: 250°WSW
Pressure: 30.06"   Gusts: NA
Location:  41.61°N, 74.3°W
Report Text: KMGJ 200854Z AUTO 25006KT 10SM CLR 02/M02 A3006 RMK AO2 SLP183 T00171022 53003 TSNO
Loading
Personal Weather Stations






























Interactive Weather Map
Tropical Storm Tracking
New forecast layout! Learn more

10-Day Weather Forecast

Advertisements
Track Severe Weather on mobile